Time;durP1;ratioP1;P1;durP2;ratioP2;P2;SDS_P1;SDS_P2;PMS_P1;PMS_P2;Temp;Humidity;BMP_temperature;BMP_pressure;BME280_temperature;BME280_humidity;BME280_pressure;Samples;Min_cycle;Max_cycle;Signal;HPM_P1;HPM_P2
2022/07/28 00:00:52;;;;;;;3.20;0.80;;;12.00;99.90;;;;;;5005213;28;20046;-82
2022/07/28 00:03:17;;;;;;;5.07;0.90;;;12.00;99.90;;;;;;4988009;28;20053;-83
2022/07/28 00:05:43;;;;;;;3.97;1.13;;;12.00;99.90;;;;;;5017464;28;20061;-82
2022/07/28 00:08:10;;;;;;;5.50;1.00;;;11.90;99.90;;;;;;5009587;28;20050;-84
2022/07/28 00:10:36;;;;;;;2.95;0.88;;;11.90;99.90;;;;;;5008243;28;20112;-83
2022/07/28 00:13:02;;;;;;;2.97;1.00;;;11.90;99.90;;;;;;4993428;28;20049;-83
2022/07/28 00:15:28;;;;;;;4.35;0.88;;;11.80;99.90;;;;;;5010418;28;20053;-82
2022/07/28 00:17:53;;;;;;;4.10;0.95;;;11.80;99.90;;;;;;5007031;28;20050;-83
2022/07/28 00:20:20;;;;;;;2.60;0.90;;;11.80;99.90;;;;;;5000703;28;20452;-83
2022/07/28 00:22:47;;;;;;;4.13;0.80;;;11.70;99.90;;;;;;5011152;28;20041;-83
2022/07/28 00:25:12;;;;;;;3.05;1.05;;;11.70;99.90;;;;;;5008757;28;20042;-84
2022/07/28 00:27:38;;;;;;;3.05;1.17;;;11.90;99.90;;;;;;5013742;28;20203;-83
2022/07/28 00:30:06;;;;;;;3.95;1.10;;;11.90;99.90;;;;;;5003921;28;20439;-83
2022/07/28 00:32:31;;;;;;;3.88;1.13;;;11.60;99.90;;;;;;4993621;28;20119;-82
2022/07/28 00:34:57;;;;;;;4.22;1.10;;;11.60;99.90;;;;;;5009915;28;20066;-83
2022/07/28 00:37:23;;;;;;;3.72;1.00;;;11.50;99.90;;;;;;5011111;28;20045;-83
2022/07/28 00:39:49;;;;;;;3.25;1.20;;;11.50;99.90;;;;;;5009888;28;20053;-83
2022/07/28 00:42:21;;;;;;;2.65;1.00;;;11.50;99.90;;;;;;5024657;28;20037;-83
2022/07/28 00:44:47;;;;;;;2.53;1.13;;;11.50;99.90;;;;;;4985197;28;20147;-83
2022/07/28 00:47:13;;;;;;;4.75;1.73;;;11.50;99.90;;;;;;5000225;28;20095;-83
2022/07/28 00:49:39;;;;;;;2.92;0.82;;;11.50;99.90;;;;;;4990540;28;20516;-83
2022/07/28 00:52:07;;;;;;;2.65;1.10;;;11.50;99.90;;;;;;4977533;28;20057;-82
2022/07/28 00:54:33;;;;;;;3.83;1.30;;;11.40;99.90;;;;;;4993974;28;20052;-83
2022/07/28 00:56:58;;;;;;;3.63;1.17;;;11.40;99.90;;;;;;4959268;28;20129;-83
2022/07/28 00:59:24;;;;;;;3.72;1.10;;;11.40;99.90;;;;;;4971965;28;20148;-82
2022/07/28 01:01:50;;;;;;;5.07;1.23;;;11.30;99.90;;;;;;4971027;28;20500;-83
2022/07/28 01:04:17;;;;;;;3.05;1.00;;;11.30;99.90;;;;;;4976647;28;20045;-83
2022/07/28 01:07:06;;;;;;;3.28;0.93;;;11.30;99.90;;;;;;4985769;28;20051;-83
2022/07/28 01:10:02;;;;;;;2.88;0.90;;;11.20;99.90;;;;;;4959041;28;20046;-83
2022/07/28 01:12:47;;;;;;;2.28;0.95;;;11.30;99.90;;;;;;4972533;28;20062;-83
2022/07/28 01:15:28;;;;;;;5.30;1.20;;;11.30;99.90;;;;;;4986875;28;20541;-83
2022/07/28 01:18:14;;;;;;;3.85;1.10;;;11.30;99.90;;;;;;4969314;28;20045;-83
2022/07/28 01:20:39;;;;;;;2.97;1.05;;;11.40;99.90;;;;;;4952981;28;20054;-83
2022/07/28 01:23:11;;;;;;;3.13;1.00;;;11.30;99.90;;;;;;4988492;28;20058;-82
2022/07/28 01:25:37;;;;;;;3.05;0.95;;;11.40;99.90;;;;;;4986567;28;20050;-83
2022/07/28 01:28:31;;;;;;;3.30;1.00;;;11.40;99.90;;;;;;4988489;28;20141;-83
2022/07/28 01:31:03;;;;;;;2.72;1.15;;;11.40;99.90;;;;;;4991622;28;20053;-83
2022/07/28 01:33:46;;;;;;;3.75;1.23;;;11.40;99.90;;;;;;4981356;28;20066;-82
2022/07/28 01:36:21;;;;;;;3.63;1.20;;;11.50;99.90;;;;;;5001424;28;20653;-83
2022/07/28 01:38:49;;;;;;;2.63;1.17;;;11.50;99.90;;;;;;4977193;28;20368;-83
2022/07/28 01:41:18;;;;;;;1.98;1.00;;;11.40;99.90;;;;;;5000177;28;20114;-83
2022/07/28 01:43:50;;;;;;;2.78;1.10;;;11.40;99.90;;;;;;4996128;28;20050;-83
2022/07/28 01:46:18;;;;;;;4.25;1.00;;;11.40;99.90;;;;;;5002470;28;20136;-83
2022/07/28 01:48:46;;;;;;;3.45;1.20;;;11.40;99.90;;;;;;5004477;28;20045;-83
2022/07/28 01:51:14;;;;;;;3.03;1.13;;;11.40;99.90;;;;;;4993269;28;20046;-83
2022/07/28 01:53:42;;;;;;;3.50;1.10;;;11.40;99.90;;;;;;5013685;28;20038;-83
2022/07/28 01:56:09;;;;;;;2.70;1.08;;;11.40;99.90;;;;;;4995289;28;20069;-82
2022/07/28 01:58:37;;;;;;;3.75;1.15;;;11.40;99.90;;;;;;5004730;28;20420;-83
2022/07/28 02:01:04;;;;;;;4.28;1.10;;;11.40;99.90;;;;;;5017337;28;20057;-83
2022/07/28 02:03:33;;;;;;;2.83;1.08;;;11.50;99.90;;;;;;4997713;28;20042;-83
2022/07/28 02:06:01;;;;;;;3.00;0.85;;;11.50;99.90;;;;;;4994010;28;20052;-83
2022/07/28 02:08:29;;;;;;;2.35;0.70;;;11.50;99.90;;;;;;5014280;28;20070;-83
2022/07/28 02:13:43;;;;;;;2.80;1.00;;;11.60;99.90;;;;;;5012544;28;20046;-82
2022/07/28 02:16:10;;;;;;;3.58;1.17;;;11.50;99.90;;;;;;4985322;28;20073;-82
2022/07/28 02:18:38;;;;;;;3.95;1.05;;;11.50;99.90;;;;;;5013121;28;20098;-83
2022/07/28 02:21:05;;;;;;;2.40;1.00;;;11.50;99.90;;;;;;5013470;28;20046;-83
2022/07/28 02:23:34;;;;;;;3.22;1.05;;;11.40;99.90;;;;;;5013916;28;20180;-82
2022/07/28 02:26:03;;;;;;;2.95;0.95;;;11.40;99.90;;;;;;4994978;28;20478;-82
2022/07/28 02:28:29;;;;;;;1.88;0.70;;;11.40;99.90;;;;;;4994884;28;20048;-83
2022/07/28 02:31:03;;;;;;;3.03;0.77;;;11.30;99.90;;;;;;4994520;28;20057;-82
2022/07/28 02:33:31;;;;;;;3.72;1.05;;;11.30;99.90;;;;;;4991312;28;20065;-82
2022/07/28 02:36:06;;;;;;;2.55;1.15;;;11.30;99.90;;;;;;4995335;28;20139;-83
2022/07/28 02:38:39;;;;;;;3.05;0.90;;;11.30;99.90;;;;;;5012880;28;20112;-83
2022/07/28 02:41:14;;;;;;;3.20;0.90;;;11.20;99.90;;;;;;4994718;28;20140;-83
2022/07/28 02:43:43;;;;;;;4.63;1.40;;;11.20;99.90;;;;;;5011993;28;20034;-82
2022/07/28 02:46:12;;;;;;;2.42;0.80;;;11.20;99.90;;;;;;5012666;28;20069;-83
2022/07/28 02:48:40;;;;;;;3.45;1.10;;;11.20;99.90;;;;;;4987322;28;20038;-82
2022/07/28 02:51:07;;;;;;;3.00;1.02;;;11.20;99.90;;;;;;4981853;28;20494;-83
2022/07/28 02:53:36;;;;;;;5.25;0.90;;;11.20;99.90;;;;;;4978474;28;20057;-83
2022/07/28 02:56:02;;;;;;;2.03;0.82;;;11.10;99.90;;;;;;4975566;28;20093;-82
2022/07/28 02:58:29;;;;;;;5.03;0.98;;;11.10;99.90;;;;;;4979692;28;20058;-83
2022/07/28 03:00:55;;;;;;;2.22;0.90;;;11.00;99.90;;;;;;4982858;28;20057;-83
2022/07/28 03:03:22;;;;;;;2.83;0.90;;;11.00;99.90;;;;;;4979975;28;20058;-83
2022/07/28 03:05:48;;;;;;;2.35;0.93;;;11.00;99.90;;;;;;4982380;28;20509;-82
2022/07/28 03:08:15;;;;;;;2.13;0.90;;;11.00;99.90;;;;;;4995170;28;20050;-82
2022/07/28 03:10:41;;;;;;;3.78;1.13;;;10.90;99.90;;;;;;4993201;28;20045;-83
2022/07/28 03:13:07;;;;;;;3.53;1.20;;;10.90;99.90;;;;;;4995093;28;20038;-83
2022/07/28 03:15:34;;;;;;;3.60;1.20;;;10.90;99.90;;;;;;4999567;28;20121;-83
2022/07/28 03:18:02;;;;;;;2.80;1.08;;;10.80;99.90;;;;;;4993091;28;20141;-82
2022/07/28 03:20:29;;;;;;;3.00;1.05;;;10.80;99.90;;;;;;4977193;28;20043;-82
2022/07/28 03:22:54;;;;;;;3.28;1.00;;;10.80;99.90;;;;;;4977997;28;20053;-82
2022/07/28 03:25:33;;;;;;;5.80;1.40;;;10.80;99.90;;;;;;4977966;28;20060;-83
2022/07/28 03:28:01;;;;;;;4.07;1.10;;;10.80;99.90;;;;;;5006350;28;20125;-83
2022/07/28 03:30:35;;;;;;;2.80;0.88;;;10.80;99.90;;;;;;5002852;28;20034;-83
2022/07/28 03:33:01;;;;;;;;;;;10.80;99.90;;;;;;4995232;28;20097;-83
2022/07/28 03:35:29;;;;;;;2.75;1.10;;;10.80;99.90;;;;;;4993994;28;20368;-82
2022/07/28 03:38:01;;;;;;;3.72;1.33;;;10.80;99.90;;;;;;4993376;28;20050;-82
2022/07/28 03:40:30;;;;;;;4.20;1.10;;;10.80;99.90;;;;;;4997292;28;20037;-83
2022/07/28 03:42:58;;;;;;;4.70;1.00;;;10.70;99.90;;;;;;5000371;28;20042;-82
2022/07/28 03:45:25;;;;;;;2.72;1.10;;;10.70;99.90;;;;;;4994566;28;20082;-83
2022/07/28 03:47:56;;;;;;;3.00;1.27;;;10.70;99.90;;;;;;4995054;28;20113;-83
2022/07/28 03:50:23;;;;;;;4.63;1.27;;;10.70;99.90;;;;;;4993089;28;20046;-82
2022/07/28 03:52:49;;;;;;;2.95;1.20;;;10.70;99.90;;;;;;5009668;28;20058;-81
2022/07/28 03:55:15;;;;;;;2.67;1.10;;;10.70;99.90;;;;;;4993416;28;20503;-83
2022/07/28 03:57:41;;;;;;;4.53;1.40;;;10.70;99.90;;;;;;5011396;28;20045;-83
2022/07/28 04:00:08;;;;;;;4.30;1.17;;;10.70;99.90;;;;;;5010000;28;20053;-82
2022/07/28 04:02:34;;;;;;;3.65;1.35;;;10.80;99.90;;;;;;5011995;28;20042;-83
2022/07/28 04:05:00;;;;;;;3.53;1.52;;;10.80;99.90;;;;;;4993922;28;20796;-83
2022/07/28 04:07:25;;;;;;;2.55;1.00;;;10.90;99.90;;;;;;5010311;28;20045;-83
2022/07/28 04:09:51;;;;;;;3.53;1.20;;;10.90;99.90;;;;;;5010878;28;20480;-82
2022/07/28 04:12:16;;;;;;;3.80;0.95;;;11.00;99.90;;;;;;5009835;28;20045;-83
2022/07/28 04:14:42;;;;;;;4.72;1.25;;;11.00;99.90;;;;;;5010885;28;20069;-83
2022/07/28 04:17:08;;;;;;;4.93;1.17;;;11.10;99.90;;;;;;5010102;28;20070;-83
2022/07/28 04:19:33;;;;;;;2.40;1.02;;;11.10;99.90;;;;;;5016216;28;20091;-82
2022/07/28 04:21:59;;;;;;;2.55;1.15;;;11.10;99.90;;;;;;5006219;28;20039;-83
2022/07/28 04:24:25;;;;;;;2.78;1.05;;;11.50;99.90;;;;;;4992808;28;20090;-83
2022/07/28 04:26:50;;;;;;;2.03;0.95;;;11.20;99.90;;;;;;4999869;28;20038;-82
2022/07/28 04:29:16;;;;;;;2.95;1.35;;;11.30;99.90;;;;;;5009929;28;20053;-83
2022/07/28 04:31:42;;;;;;;3.28;0.90;;;11.30;99.90;;;;;;5014474;28;20104;-83
2022/07/28 04:34:10;;;;;;;2.95;1.20;;;11.30;99.90;;;;;;5008471;28;20045;-81
2022/07/28 04:36:40;;;;;;;3.65;1.20;;;11.40;99.90;;;;;;5014525;28;20038;-82
2022/07/28 04:39:09;;;;;;;6.40;1.20;;;11.40;99.90;;;;;;5016674;28;20405;-83
2022/07/28 04:41:35;;;;;;;3.10;1.30;;;11.40;99.90;;;;;;5010992;28;20054;-83
2022/07/28 04:44:01;;;;;;;3.03;1.13;;;11.60;99.90;;;;;;5004415;28;20141;-82
2022/07/28 04:46:27;;;;;;;4.97;1.30;;;11.50;99.90;;;;;;5007419;28;20132;-82
2022/07/28 04:48:53;;;;;;;3.15;1.13;;;11.50;99.90;;;;;;5003495;28;20050;-82
2022/07/28 04:51:21;;;;;;;3.65;1.17;;;11.60;99.90;;;;;;4999886;28;20552;-82
2022/07/28 04:53:47;;;;;;;3.83;1.20;;;11.60;99.90;;;;;;4999046;28;20039;-82
2022/07/28 04:56:13;;;;;;;3.28;1.30;;;11.60;99.90;;;;;;4989790;28;20061;-82
2022/07/28 04:58:38;;;;;;;6.38;1.40;;;11.60;99.90;;;;;;4992448;28;20042;-82
2022/07/28 05:01:04;;;;;;;2.47;1.10;;;11.70;99.90;;;;;;4986565;28;20042;-82
2022/07/28 05:03:30;;;;;;;6.25;1.15;;;11.80;99.90;;;;;;4986592;28;20094;-82
2022/07/28 05:05:55;;;;;;;3.08;1.10;;;11.80;99.90;;;;;;4984263;28;20057;-82
2022/07/28 05:08:24;;;;;;;3.55;1.30;;;11.90;99.90;;;;;;4988030;28;20540;-82
2022/07/28 05:10:49;;;;;;;2.92;1.40;;;11.90;99.90;;;;;;4972829;28;20466;-82
2022/07/28 05:13:15;;;;;;;2.38;1.10;;;12.00;99.90;;;;;;4994842;28;20121;-84
2022/07/28 05:15:41;;;;;;;3.17;1.30;;;12.00;99.90;;;;;;4995607;28;20504;-83
2022/07/28 05:18:06;;;;;;;3.67;1.20;;;12.00;99.90;;;;;;4972040;28;20050;-83
2022/07/28 05:20:32;;;;;;;5.97;1.30;;;12.10;99.90;;;;;;4982908;28;20074;-83
2022/07/28 05:22:57;;;;;;;4.65;1.30;;;12.10;99.90;;;;;;4973867;28;20070;-83
2022/07/28 05:25:24;;;;;;;6.25;1.80;;;12.20;99.90;;;;;;4971106;28;20038;-83
2022/07/28 05:27:52;;;;;;;3.85;1.38;;;12.20;99.90;;;;;;4990333;28;20042;-82
2022/07/28 05:30:19;;;;;;;4.82;1.58;;;12.20;99.90;;;;;;4992396;28;20046;-83
2022/07/28 05:32:44;;;;;;;9.10;1.52;;;12.30;99.90;;;;;;4981942;28;20459;-83
2022/07/28 05:35:10;;;;;;;3.95;1.45;;;12.30;99.90;;;;;;4995485;28;20050;-82
2022/07/28 05:37:37;;;;;;;2.97;1.30;;;12.30;99.90;;;;;;4996984;28;20050;-83
2022/07/28 05:40:09;;;;;;;4.65;1.00;;;12.40;99.90;;;;;;4994313;28;20104;-82
2022/07/28 05:42:35;;;;;;;6.38;1.02;;;12.40;99.90;;;;;;4994679;28;20072;-83
2022/07/28 05:45:04;;;;;;;1.98;0.95;;;12.50;99.90;;;;;;5001617;28;20042;-83
2022/07/28 05:47:38;;;;;;;3.13;1.10;;;12.60;99.90;;;;;;5012484;28;20053;-83
2022/07/28 05:50:04;;;;;;;5.50;1.10;;;12.60;99.90;;;;;;5014584;28;20046;-83
2022/07/28 05:52:31;;;;;;;4.70;1.00;;;12.60;99.90;;;;;;5016389;28;20042;-83
2022/07/28 05:54:56;;;;;;;3.95;1.17;;;12.70;99.90;;;;;;5007512;28;20069;-82
2022/07/28 05:57:24;;;;;;;6.20;1.55;;;12.80;99.90;;;;;;5010882;28;20448;-82
2022/07/28 05:59:50;;;;;;;2.28;1.08;;;12.80;99.90;;;;;;5011428;28;20042;-82
2022/07/28 06:02:15;;;;;;;3.55;1.17;;;12.90;99.90;;;;;;5012582;28;20473;-83
2022/07/28 06:04:41;;;;;;;4.65;1.33;;;12.90;99.90;;;;;;5009284;28;20046;-81
2022/07/28 06:07:06;;;;;;;5.20;1.20;;;13.00;99.90;;;;;;4995103;28;20050;-82
2022/07/28 06:09:32;;;;;;;5.55;2.05;;;13.00;99.90;;;;;;4991775;28;20145;-82
2022/07/28 06:11:58;;;;;;;5.10;1.42;;;13.10;99.90;;;;;;5010936;28;20049;-82
2022/07/28 06:14:25;;;;;;;5.93;1.52;;;13.20;99.90;;;;;;5010402;28;20041;-82
2022/07/28 06:16:50;;;;;;;8.15;1.88;;;13.20;99.90;;;;;;4992808;28;20057;-82
2022/07/28 06:19:16;;;;;;;5.45;1.58;;;13.40;99.90;;;;;;5012217;28;20046;-83
2022/07/28 06:21:42;;;;;;;6.63;1.75;;;13.50;99.90;;;;;;4994980;28;20050;-82
2022/07/28 06:24:08;;;;;;;5.63;1.75;;;13.60;99.90;;;;;;5008065;28;20553;-84
2022/07/28 06:26:38;;;;;;;8.82;1.98;;;13.70;99.90;;;;;;4993982;28;20093;-84
2022/07/28 06:29:05;;;;;;;5.32;1.67;;;13.90;99.90;;;;;;4999451;28;20108;-81
2022/07/28 06:31:30;;;;;;;6.22;1.63;;;14.00;99.90;;;;;;5004765;28;20412;-83
2022/07/28 06:33:56;;;;;;;4.05;1.48;;;13.90;99.90;;;;;;5008750;28;20050;-84
2022/07/28 06:36:22;;;;;;;8.18;1.40;;;14.00;99.90;;;;;;4994016;28;20401;-84
2022/07/28 06:38:48;;;;;;;5.00;0.98;;;14.10;99.90;;;;;;5010538;28;20054;-84
2022/07/28 06:41:14;;;;;;;3.55;0.88;;;14.10;99.90;;;;;;5007592;28;20034;-83
2022/07/28 06:43:40;;;;;;;6.72;1.33;;;14.30;99.90;;;;;;4993333;28;20049;-86
2022/07/28 06:46:06;;;;;;;3.97;1.00;;;14.20;99.90;;;;;;5008791;28;20049;-82
2022/07/28 06:48:32;;;;;;;5.13;0.93;;;14.30;99.90;;;;;;4987547;28;20064;-84
2022/07/28 06:51:01;;;;;;;5.85;0.88;;;14.30;99.90;;;;;;4988556;28;20050;-82
2022/07/28 06:53:26;;;;;;;6.70;1.00;;;14.80;99.90;;;;;;5003269;28;20045;-79
2022/07/28 06:55:52;;;;;;;4.80;0.77;;;14.30;99.90;;;;;;4996982;28;20045;-79
2022/07/28 06:58:17;;;;;;;6.82;0.80;;;14.30;99.90;;;;;;5019829;28;20054;-80
2022/07/28 07:00:43;;;;;;;3.25;0.80;;;14.30;99.90;;;;;;5010736;28;20393;-81
2022/07/28 07:03:08;;;;;;;4.70;0.95;;;14.80;99.90;;;;;;5008195;28;20045;-80
2022/07/28 07:05:34;;;;;;;3.50;1.10;;;14.40;99.90;;;;;;5016621;28;20037;-79
2022/07/28 07:08:00;;;;;;;4.72;0.80;;;15.00;99.90;;;;;;5005441;28;20033;-79
2022/07/28 07:10:25;;;;;;;4.53;1.00;;;14.50;99.90;;;;;;5010128;28;20042;-79
2022/07/28 07:12:51;;;;;;;5.90;0.75;;;14.50;99.90;;;;;;4992454;28;20049;-79
2022/07/28 07:15:17;;;;;;;5.72;1.05;;;14.50;99.90;;;;;;5005955;28;20045;-79
2022/07/28 07:17:42;;;;;;;3.80;1.08;;;14.60;99.90;;;;;;5008673;28;20397;-79
2022/07/28 07:20:09;;;;;;;4.63;1.10;;;15.40;99.90;;;;;;5015676;28;20056;-79
2022/07/28 07:22:41;;;;;;;6.63;1.10;;;14.70;99.90;;;;;;4991364;28;20041;-79
2022/07/28 07:25:12;;;;;;;5.55;1.23;;;14.80;99.90;;;;;;5006291;28;20129;-79
2022/07/28 07:27:38;;;;;;;5.05;1.00;;;14.90;99.90;;;;;;5010913;28;20041;-78
2022/07/28 07:30:05;;;;;;;3.90;1.05;;;15.30;99.90;;;;;;5009808;28;20444;-79
2022/07/28 07:32:31;;;;;;;3.15;0.70;;;15.10;99.90;;;;;;4993263;28;20052;-79
2022/07/28 07:35:08;;;;;;;4.05;0.73;;;15.50;99.90;;;;;;4989632;28;20400;-79
2022/07/28 07:37:34;;;;;;;6.45;0.80;;;15.30;99.90;;;;;;4969704;28;20493;-81
2022/07/28 07:40:01;;;;;;;5.07;1.08;;;15.90;99.90;;;;;;4999958;28;20045;-78
2022/07/28 07:42:27;;;;;;;5.13;1.10;;;16.20;99.90;;;;;;4990091;28;20061;-79
2022/07/28 07:44:53;;;;;;;5.22;1.30;;;16.20;99.90;;;;;;4979886;28;20057;-78
2022/07/28 07:47:18;;;;;;;5.05;1.00;;;15.70;99.90;;;;;;4977544;28;20058;-80
2022/07/28 07:49:44;;;;;;;5.40;1.42;;;15.70;99.90;;;;;;4981479;28;20417;-78
2022/07/28 07:52:09;;;;;;;5.15;1.35;;;15.70;99.90;;;;;;4972182;28;20129;-79
2022/07/28 07:54:35;;;;;;;4.45;1.35;;;15.70;99.90;;;;;;4977269;28;20477;-79
2022/07/28 07:57:01;;;;;;;5.10;1.42;;;16.00;99.90;;;;;;4977678;28;20484;-78
2022/07/28 07:59:26;;;;;;;7.22;2.28;;;15.70;99.90;;;;;;4975487;28;20713;-79
2022/07/28 08:01:55;;;;;;;4.75;1.60;;;15.60;99.90;;;;;;4974831;28;20038;-79
2022/07/28 08:04:22;;;;;;;5.05;1.60;;;15.60;99.90;;;;;;4977894;28;20101;-79
2022/07/28 08:06:48;;;;;;;7.38;2.20;;;15.60;99.90;;;;;;4981605;28;20050;-79
2022/07/28 08:09:14;;;;;;;4.72;1.92;;;15.40;99.90;;;;;;4978335;28;20042;-78
2022/07/28 08:11:40;;;;;;;8.20;1.65;;;15.60;99.90;;;;;;4973891;28;20078;-79
2022/07/28 08:14:06;;;;;;;6.32;1.90;;;15.60;99.90;;;;;;4977534;28;20134;-78
2022/07/28 08:16:31;;;;;;;5.72;2.05;;;15.70;99.90;;;;;;4981300;28;20039;-79
2022/07/28 08:18:57;;;;;;;6.65;1.85;;;15.80;99.90;;;;;;4977418;28;20074;-78
2022/07/28 08:21:27;;;;;;;9.63;1.40;;;16.40;99.90;;;;;;4974937;28;20518;-79
2022/07/28 08:23:57;;;;;;;6.18;1.75;;;16.10;99.90;;;;;;4976647;28;20718;-78
2022/07/28 08:26:28;;;;;;;7.22;1.60;;;16.20;99.90;;;;;;4980829;28;20038;-79
2022/07/28 08:28:54;;;;;;;8.60;1.95;;;16.30;99.90;;;;;;4979404;28;20574;-79
2022/07/28 08:31:20;;;;;;;12.75;1.95;;;16.40;99.90;;;;;;4976995;28;20661;-78
2022/07/28 08:33:49;;;;;;;9.55;1.95;;;16.60;99.90;;;;;;4973602;28;20046;-76
2022/07/28 08:36:15;;;;;;;3.55;1.20;;;16.70;99.90;;;;;;4979185;28;20078;-79
2022/07/28 08:38:41;;;;;;;4.00;0.82;;;16.90;99.90;;;;;;4978773;28;20053;-82
2022/07/28 08:41:15;;;;;;;7.22;1.17;;;16.90;99.90;;;;;;4977801;28;20393;-77
2022/07/28 08:43:41;;;;;;;4.47;0.98;;;17.00;99.90;;;;;;4972857;28;20092;-76
2022/07/28 08:46:07;;;;;;;4.70;0.93;;;17.40;99.90;;;;;;4985357;28;20054;-76
2022/07/28 08:48:35;;;;;;;3.40;0.88;;;17.10;99.90;;;;;;5001341;28;20584;-76
2022/07/28 08:51:08;;;;;;;15.18;1.65;;;17.20;99.90;;;;;;4994834;28;20432;-77
2022/07/28 08:53:36;;;;;;;15.90;1.40;;;17.50;99.90;;;;;;4973797;28;20056;-77
2022/07/28 08:56:12;;;;;;;7.15;1.25;;;17.50;99.90;;;;;;4999486;28;20049;-77
2022/07/28 08:58:38;;;;;;;3.72;0.95;;;17.70;99.90;;;;;;4997670;28;20520;-77
2022/07/28 09:01:07;;;;;;;5.30;0.80;;;17.50;99.90;;;;;;4979988;28;20046;-78
2022/07/28 09:03:33;;;;;;;3.67;0.93;;;17.90;99.90;;;;;;4992536;28;20056;-77
2022/07/28 09:05:59;;;;;;;3.40;0.70;;;17.70;99.90;;;;;;4981453;28;21941;-77
2022/07/28 09:08:24;;;;;;;6.45;0.90;;;17.80;99.90;;;;;;4983301;28;20069;-76
2022/07/28 09:10:51;;;;;;;7.55;1.10;;;17.90;99.90;;;;;;5001145;28;20052;-76
2022/07/28 09:13:17;;;;;;;7.68;1.00;;;18.00;99.90;;;;;;4996684;28;20185;-76
2022/07/28 09:15:45;;;;;;;2.05;0.55;;;18.10;99.90;;;;;;5002228;28;20044;-76
2022/07/28 09:18:12;;;;;;;4.85;0.80;;;18.20;99.90;;;;;;5002473;28;20041;-81
2022/07/28 09:20:39;;;;;;;3.53;0.80;;;18.30;99.90;;;;;;5001920;28;20069;-78
2022/07/28 09:23:07;;;;;;;4.07;0.85;;;18.70;99.90;;;;;;4976250;28;20042;-79
2022/07/28 09:25:32;;;;;;;3.38;0.65;;;18.50;99.90;;;;;;4985774;28;20046;-78
2022/07/28 09:28:07;;;;;;;2.42;0.57;;;18.50;99.90;;;;;;5002919;28;20044;-79
2022/07/28 09:30:36;;;;;;;2.45;0.60;;;18.60;99.90;;;;;;4981697;28;20050;-78
2022/07/28 09:33:12;;;;;;;2.40;0.50;;;18.80;99.90;;;;;;4994714;28;20117;-78
2022/07/28 09:35:56;;;;;;;10.13;0.98;;;18.90;99.90;;;;;;4982105;28;20046;-78
2022/07/28 09:38:26;;;;;;;8.27;1.10;;;18.90;99.90;;;;;;5002916;28;20054;-78
2022/07/28 09:41:05;;;;;;;6.82;0.93;;;19.10;99.90;;;;;;5002396;28;20080;-78
2022/07/28 09:43:35;;;;;;;3.05;0.60;;;19.30;99.90;;;;;;4976319;28;20150;-77
2022/07/28 09:46:07;;;;;;;3.67;0.88;;;19.40;99.90;;;;;;5002332;28;20068;-77
2022/07/28 09:48:33;;;;;;;3.05;0.60;;;19.60;99.90;;;;;;5004976;28;20127;-77
2022/07/28 09:51:14;;;;;;;3.53;0.70;;;19.70;99.90;;;;;;5000082;28;20141;-78
2022/07/28 09:53:41;;;;;;;5.40;0.70;;;19.80;99.70;;;;;;4994797;23;20046;-77
2022/07/28 09:56:08;;;;;;;3.97;1.05;;;19.90;99.80;;;;;;4983937;28;20054;-77
2022/07/28 09:58:34;;;;;;;3.55;0.80;;;20.10;97.90;;;;;;4981461;28;20034;-76
2022/07/28 10:01:03;;;;;;;5.72;0.70;;;20.10;99.40;;;;;;5001157;28;20084;-77
2022/07/28 10:03:30;;;;;;;3.40;0.60;;;20.20;99.50;;;;;;4989217;28;20709;-77
2022/07/28 10:05:57;;;;;;;5.88;1.23;;;20.30;97.90;;;;;;4997153;28;20050;-76
2022/07/28 10:08:44;;;;;;;2.30;0.60;;;20.30;99.50;;;;;;5012824;28;20424;-78
2022/07/28 10:11:11;;;;;;;2.90;0.60;;;20.30;98.50;;;;;;5003692;28;20049;-78
2022/07/28 10:13:52;;;;;;;3.63;0.85;;;20.70;99.30;;;;;;5017752;28;20046;-76
2022/07/28 10:16:19;;;;;;;3.90;0.98;;;20.40;98.20;;;;;;4998030;28;20513;-77
2022/07/28 10:18:46;;;;;;;6.72;0.95;;;20.50;98.70;;;;;;4998277;28;20091;-77
2022/07/28 10:21:14;;;;;;;3.67;1.20;;;20.50;98.60;;;;;;4994359;28;20496;-77
2022/07/28 10:23:45;;;;;;;3.50;0.85;;;20.60;99.10;;;;;;5010004;28;20100;-77
2022/07/28 10:26:11;;;;;;;6.85;1.00;;;20.60;98.90;;;;;;4987093;28;20766;-77
2022/07/28 10:28:43;;;;;;;7.07;1.05;;;20.60;99.00;;;;;;5012043;28;20048;-77
2022/07/28 10:31:10;;;;;;;4.13;1.10;;;20.60;98.10;;;;;;4992429;28;20096;-77
2022/07/28 10:33:46;;;;;;;4.53;1.15;;;20.50;98.00;;;;;;5013277;28;20081;-76
2022/07/28 10:36:13;;;;;;;2.30;1.00;;;20.40;97.80;;;;;;5003605;28;20049;-76
2022/07/28 10:38:39;;;;;;;2.10;0.82;;;20.40;98.30;;;;;;5006434;28;20125;-76
2022/07/28 10:41:07;;;;;;;2.28;0.80;;;20.40;98.00;;;;;;5013312;28;20489;-76
2022/07/28 10:43:34;;;;;;;3.05;0.90;;;20.30;98.30;;;;;;4990518;28;20096;-77
2022/07/28 10:46:02;;;;;;;4.20;1.20;;;20.30;98.70;;;;;;4995146;28;20168;-76
2022/07/28 10:48:28;;;;;;;3.85;1.00;;;20.30;98.50;;;;;;4988685;28;20393;-76
2022/07/28 10:50:55;;;;;;;4.75;0.90;;;20.30;98.60;;;;;;4993931;28;20052;-76
2022/07/28 10:53:45;;;;;;;5.72;0.90;;;20.30;98.60;;;;;;5010456;28;20042;-77
2022/07/28 10:56:16;;;;;;;2.33;0.65;;;20.30;97.20;;;;;;5019232;28;20137;-76
2022/07/28 10:58:56;;;;;;;2.67;0.73;;;20.30;98.30;;;;;;4992429;28;20050;-77
2022/07/28 11:01:36;;;;;;;4.18;0.77;;;20.30;98.00;;;;;;4991254;28;20046;-77
2022/07/28 11:04:02;;;;;;;2.58;0.80;;;20.30;97.40;;;;;;5009302;28;20050;-77
2022/07/28 11:06:34;;;;;;;4.10;0.85;;;20.30;97.80;;;;;;5008596;28;20157;-76
2022/07/28 11:09:21;;;;;;;2.80;0.73;;;20.30;97.70;;;;;;5014230;28;20046;-77
2022/07/28 11:11:51;;;;;;;3.38;0.70;;;20.30;97.30;;;;;;5006129;28;20060;-77
2022/07/28 11:14:23;;;;;;;2.88;0.50;;;20.40;97.60;;;;;;4994305;28;20054;-77
2022/07/28 11:17:04;;;;;;;2.40;0.68;;;20.50;97.30;;;;;;4992485;28;20602;-77
2022/07/28 11:19:47;;;;;;;3.38;0.60;;;20.70;97.00;;;;;;5011748;28;20358;-76
2022/07/28 11:22:13;;;;;;;4.55;0.55;;;21.00;97.10;;;;;;5003481;28;20064;-76
2022/07/28 11:24:57;;;;;;;3.78;0.80;;;21.40;96.70;;;;;;5006421;28;20552;-76
2022/07/28 11:27:55;;;;;;;3.70;0.63;;;21.40;94.40;;;;;;5013958;28;20041;-77
2022/07/28 11:30:35;;;;;;;2.25;0.50;;;21.90;95.10;;;;;;4995777;28;20172;-76
2022/07/28 11:33:03;;;;;;;4.00;0.70;;;21.70;95.70;;;;;;5016658;28;20185;-77
2022/07/28 11:35:30;;;;;;;3.00;0.60;;;21.80;95.70;;;;;;5003167;28;20392;-77
2022/07/28 11:38:02;;;;;;;2.75;0.57;;;21.70;94.80;;;;;;4995062;28;20041;-77
2022/07/28 11:40:37;;;;;;;3.75;0.60;;;21.70;93.30;;;;;;5013022;28;20080;-76
2022/07/28 11:43:30;;;;;;;3.85;1.17;;;21.80;95.10;;;;;;4991668;28;20046;-76
2022/07/28 11:46:05;;;;;;;4.10;0.70;;;21.70;94.90;;;;;;4994621;28;20401;-76
2022/07/28 11:48:32;;;;;;;2.05;0.60;;;21.80;95.60;;;;;;5004122;28;20053;-77
2022/07/28 11:51:01;;;;;;;3.13;0.50;;;21.90;95.50;;;;;;4997003;28;20042;-75
2022/07/28 11:53:48;;;;;;;1.98;0.60;;;22.00;94.50;;;;;;5017280;28;20129;-76
2022/07/28 11:56:25;;;;;;;7.25;0.60;;;22.10;93.50;;;;;;5012990;28;20119;-77
2022/07/28 11:59:03;;;;;;;3.08;0.55;;;22.00;94.50;;;;;;5014594;28;20045;-76
2022/07/28 12:01:32;;;;;;;1.50;0.50;;;21.90;95.00;;;;;;5001085;28;20037;-76
2022/07/28 12:04:10;;;;;;;5.05;1.48;;;21.90;95.30;;;;;;5014532;28;20049;-76
2022/07/28 12:06:41;;;;;;;6.82;1.10;;;21.70;95.40;;;;;;5014773;28;20144;-76
2022/07/28 12:09:08;;;;;;;2.72;0.63;;;21.70;95.30;;;;;;5013817;28;20493;-76
2022/07/28 12:11:36;;;;;;;1.88;0.50;;;21.60;95.00;;;;;;5010852;28;20488;-76
2022/07/28 12:14:07;;;;;;;5.13;0.75;;;21.50;95.20;;;;;;4989029;28;20046;-77
2022/07/28 12:16:35;;;;;;;4.22;0.77;;;21.70;95.70;;;;;;5019478;28;20084;-78
2022/07/28 12:19:02;;;;;;;2.70;0.60;;;21.80;95.70;;;;;;5010906;28;20050;-76
2022/07/28 12:21:45;;;;;;;2.97;0.63;;;21.50;94.70;;;;;;4996353;28;20091;-76
2022/07/28 12:24:13;;;;;;;3.08;0.63;;;21.40;94.60;;;;;;5011930;28;20045;-77
2022/07/28 12:26:40;;;;;;;4.03;0.70;;;21.30;95.30;;;;;;4990489;28;20048;-76
2022/07/28 12:29:06;;;;;;;2.00;0.43;;;21.20;95.20;;;;;;5019461;28;20103;-76
2022/07/28 12:31:32;;;;;;;2.03;0.70;;;21.30;95.20;;;;;;4992039;28;20419;-77
2022/07/28 12:33:59;;;;;;;3.85;0.70;;;21.30;95.60;;;;;;4990467;28;20096;-76
2022/07/28 12:36:26;;;;;;;4.43;0.60;;;21.40;95.40;;;;;;5016717;28;20037;-76
2022/07/28 12:38:52;;;;;;;3.03;0.70;;;21.60;95.40;;;;;;4996442;28;20037;-76
2022/07/28 12:41:18;;;;;;;2.55;0.60;;;21.80;94.40;;;;;;4992093;28;20044;-76
2022/07/28 12:43:53;;;;;;;1.38;0.50;;;21.90;94.70;;;;;;5011136;28;20050;-76
2022/07/28 12:46:26;;;;;;;3.28;0.70;;;22.00;94.60;;;;;;4985611;28;20049;-76
2022/07/28 12:48:56;;;;;;;3.55;0.77;;;22.00;94.70;;;;;;5008824;28;20050;-76
2022/07/28 12:51:41;;;;;;;2.20;0.55;;;22.00;94.10;;;;;;5008519;28;20048;-77
2022/07/28 12:54:09;;;;;;;3.13;0.57;;;21.90;93.60;;;;;;4990155;28;20117;-77
2022/07/28 12:56:46;;;;;;;1.95;0.50;;;21.80;94.00;;;;;;4998142;28;20034;-76
2022/07/28 12:59:15;;;;;;;2.58;0.60;;;21.90;94.10;;;;;;5007573;28;20057;-76